createdAt,value
2022-11-24T00:01:09.105Z,2.00
2022-11-24T00:03:36.476Z,2.80
2022-11-24T00:06:07.762Z,1.80
2022-11-24T00:08:38.663Z,2.20
2022-11-24T00:11:07.750Z,2.20
2022-11-24T00:13:35.200Z,2.50
2022-11-24T00:16:29.015Z,1.80
2022-11-24T00:18:57.388Z,1.97
2022-11-24T00:21:25.121Z,2.00
2022-11-24T00:23:52.817Z,1.80
2022-11-24T00:26:21.275Z,2.10
2022-11-24T00:28:50.510Z,1.80
2022-11-24T00:31:19.454Z,1.80
2022-11-24T00:33:48.138Z,2.23
2022-11-24T00:36:16.207Z,2.03
2022-11-24T00:38:43.442Z,1.60
2022-11-24T00:41:11.390Z,1.93
2022-11-24T00:43:39.585Z,1.77
2022-11-24T00:46:07.081Z,1.90
2022-11-24T00:48:34.695Z,1.60
2022-11-24T00:51:03.206Z,4.33
2022-11-24T00:53:30.780Z,3.27
2022-11-24T00:55:58.343Z,2.60
2022-11-24T00:58:25.777Z,4.37
2022-11-24T01:00:53.760Z,10.13
2022-11-24T01:03:22.108Z,2.80
2022-11-24T01:05:49.904Z,2.20
2022-11-24T01:08:17.553Z,2.63
2022-11-24T01:10:44.907Z,1.67
2022-11-24T01:13:13.395Z,1.63
2022-11-24T01:15:40.785Z,1.50
2022-11-24T01:18:08.195Z,2.40
2022-11-24T01:20:37.985Z,2.47
2022-11-24T01:23:05.392Z,4.13
2022-11-24T01:25:32.838Z,14.20
2022-11-24T01:28:00.119Z,3.40
2022-11-24T01:30:27.568Z,1.83
2022-11-24T01:32:54.876Z,7.07
2022-11-24T01:35:22.107Z,16.73
2022-11-24T01:37:49.376Z,6.13
2022-11-24T01:40:16.990Z,3.80
2022-11-24T01:42:48.447Z,2.37
2022-11-24T01:45:35.460Z,4.77
2022-11-24T01:48:05.519Z,7.50
2022-11-24T01:50:33.845Z,3.83
2022-11-24T01:53:01.880Z,1.87
2022-11-24T01:55:34.583Z,1.60
2022-11-24T01:58:07.072Z,1.60
2022-11-24T02:00:35.872Z,1.80
2022-11-24T02:03:03.300Z,1.93
2022-11-24T02:05:33.881Z,1.20
2022-11-24T02:08:01.852Z,1.80
2022-11-24T02:10:29.305Z,1.70
2022-11-24T02:12:57.810Z,1.60
2022-11-24T02:15:25.989Z,1.63
2022-11-24T02:17:54.300Z,1.97
2022-11-24T02:20:22.262Z,5.10
2022-11-24T02:23:12.260Z,5.73
2022-11-24T02:25:50.912Z,2.60
2022-11-24T02:28:23.192Z,3.40
2022-11-24T02:30:51.449Z,3.90
2022-11-24T02:33:21.574Z,1.97
2022-11-24T02:35:49.751Z,1.80
2022-11-24T02:38:16.971Z,1.67
2022-11-24T02:40:45.876Z,1.60
2022-11-24T02:43:15.499Z,2.07
2022-11-24T02:45:42.995Z,1.57
2022-11-24T02:48:11.558Z,2.30
2022-11-24T02:50:38.886Z,1.90
2022-11-24T02:53:06.196Z,1.73
2022-11-24T02:55:33.557Z,1.27
2022-11-24T02:58:01.982Z,1.50
2022-11-24T03:00:29.243Z,1.80
2022-11-24T03:02:56.582Z,1.57
2022-11-24T03:05:24.101Z,1.93
2022-11-24T03:07:52.181Z,1.63
2022-11-24T03:10:19.449Z,1.63
2022-11-24T03:12:47.085Z,1.50
2022-11-24T03:15:14.459Z,1.60
2022-11-24T03:17:42.133Z,1.30
2022-11-24T03:20:09.823Z,1.43
2022-11-24T03:22:37.843Z,1.30
2022-11-24T03:25:05.337Z,1.77
2022-11-24T03:27:32.993Z,1.90
2022-11-24T03:30:00.419Z,1.60
2022-11-24T03:32:27.698Z,1.90
2022-11-24T03:34:55.001Z,2.33
2022-11-24T03:37:22.683Z,2.17
2022-11-24T03:39:50.127Z,2.63
2022-11-24T03:42:17.494Z,2.13
2022-11-24T03:44:44.860Z,2.00
2022-11-24T03:47:12.813Z,2.20
2022-11-24T03:49:41.569Z,2.73
2022-11-24T03:52:09.406Z,2.00
2022-11-24T03:54:37.310Z,2.00
2022-11-24T03:57:05.081Z,2.00
2022-11-24T03:59:32.400Z,2.00
2022-11-24T04:01:59.833Z,1.90
2022-11-24T04:04:27.086Z,3.47
2022-11-24T04:06:54.355Z,2.00
2022-11-24T04:09:21.778Z,2.37
2022-11-24T04:12:07.628Z,2.00
2022-11-24T04:14:35.208Z,2.40
2022-11-24T04:17:04.273Z,2.57
2022-11-24T04:19:31.963Z,3.20
2022-11-24T04:21:59.340Z,3.07
2022-11-24T04:24:26.669Z,3.17
2022-11-24T04:26:54.520Z,2.50
2022-11-24T04:29:21.980Z,2.40
2022-11-24T04:31:49.411Z,2.33
2022-11-24T04:34:16.849Z,5.70
2022-11-24T04:36:44.069Z,8.30
2022-11-24T04:39:23.459Z,4.67
2022-11-24T04:41:53.620Z,4.07
2022-11-24T04:44:22.022Z,3.87
2022-11-24T04:46:49.545Z,4.23
2022-11-24T04:49:16.895Z,6.67
2022-11-24T04:51:45.191Z,8.83
2022-11-24T04:54:13.487Z,8.00
2022-11-24T04:56:41.577Z,6.87
2022-11-24T04:59:09.132Z,11.20
2022-11-24T05:01:36.649Z,8.17
2022-11-24T05:04:04.048Z,9.57
2022-11-24T05:06:33.280Z,9.53
2022-11-24T05:09:00.655Z,8.20
2022-11-24T05:11:27.911Z,7.93
2022-11-24T05:13:55.304Z,6.53
2022-11-24T05:16:23.201Z,6.10
2022-11-24T05:18:50.523Z,6.83
2022-11-24T05:21:18.057Z,6.70
2022-11-24T05:23:45.353Z,5.83
2022-11-24T05:26:13.017Z,5.27
2022-11-24T05:28:40.412Z,6.80
2022-11-24T05:31:07.771Z,3.87
2022-11-24T05:33:35.081Z,5.20
2022-11-24T05:36:06.109Z,4.40
2022-11-24T05:38:33.729Z,4.17
2022-11-24T05:41:02.301Z,4.00
2022-11-24T05:43:29.797Z,4.33
2022-11-24T05:46:06.153Z,4.40
2022-11-24T05:48:33.462Z,4.00
2022-11-24T05:51:03.180Z,4.00
2022-11-24T05:53:34.930Z,4.60
2022-11-24T05:56:06.299Z,4.57
2022-11-24T05:58:33.763Z,4.97
2022-11-24T06:01:01.521Z,5.40
2022-11-24T06:03:28.888Z,5.67
2022-11-24T06:05:56.534Z,4.90
2022-11-24T06:08:31.107Z,4.90
2022-11-24T06:11:17.198Z,4.90
2022-11-24T06:13:45.721Z,5.63
2022-11-24T06:16:13.428Z,6.13
2022-11-24T06:18:40.914Z,6.53
2022-11-24T06:21:11.243Z,6.80
2022-11-24T06:23:39.289Z,7.43
2022-11-24T06:26:06.822Z,6.80
2022-11-24T06:28:34.230Z,6.67
2022-11-24T06:31:05.332Z,8.60
2022-11-24T06:33:36.265Z,7.00
2022-11-24T06:36:04.854Z,7.87
2022-11-24T06:38:32.620Z,6.40
2022-11-24T06:41:07.287Z,7.90
2022-11-24T06:43:35.489Z,8.00
2022-11-24T06:46:03.342Z,6.60
2022-11-24T06:48:31.042Z,8.10
2022-11-24T06:51:01.984Z,6.70
2022-11-24T06:53:33.320Z,6.80
2022-11-24T06:56:01.428Z,5.67
2022-11-24T06:58:28.699Z,5.43
2022-11-24T07:00:56.331Z,5.07
2022-11-24T07:03:23.968Z,5.47
2022-11-24T07:05:56.370Z,5.40
2022-11-24T07:08:23.664Z,5.40
2022-11-24T07:10:52.603Z,4.60
2022-11-24T07:13:20.588Z,4.67
2022-11-24T07:15:48.240Z,4.67
2022-11-24T07:18:15.626Z,4.43
2022-11-24T07:20:43.390Z,4.40
2022-11-24T07:23:10.745Z,3.73
2022-11-24T07:25:38.046Z,3.93
2022-11-24T07:28:06.370Z,4.50
2022-11-24T07:30:33.693Z,3.57
2022-11-24T07:33:04.734Z,4.10
2022-11-24T07:35:32.028Z,3.70
2022-11-24T07:37:59.685Z,3.97
2022-11-24T07:40:27.240Z,4.47
2022-11-24T07:42:55.089Z,4.87
2022-11-24T07:45:22.347Z,3.10
2022-11-24T07:47:49.594Z,4.03
2022-11-24T07:50:17.648Z,3.43
2022-11-24T07:52:45.159Z,3.40
2022-11-24T07:55:12.460Z,4.50
2022-11-24T07:57:41.175Z,4.10
2022-11-24T08:00:08.914Z,3.93
2022-11-24T08:02:36.628Z,4.23
2022-11-24T08:05:03.955Z,4.17
2022-11-24T08:07:31.535Z,3.97
2022-11-24T08:09:58.907Z,3.70
2022-11-24T08:12:26.199Z,3.17
2022-11-24T08:14:53.663Z,4.03
2022-11-24T08:17:21.234Z,3.63
2022-11-24T08:19:48.602Z,3.57
2022-11-24T08:22:15.860Z,3.50
2022-11-24T08:24:47.205Z,3.77
2022-11-24T08:27:15.156Z,3.37
2022-11-24T08:29:42.826Z,3.43
2022-11-24T08:32:10.861Z,3.40
2022-11-24T08:34:38.223Z,2.73
2022-11-24T08:37:06.188Z,2.07
2022-11-24T08:39:33.872Z,2.17
2022-11-24T08:42:01.167Z,1.67
2022-11-24T08:44:28.866Z,1.90
2022-11-24T08:46:56.273Z,1.87
2022-11-24T08:49:23.581Z,1.80
2022-11-24T08:51:51.431Z,2.47
2022-11-24T08:54:18.942Z,1.50
2022-11-24T08:56:47.122Z,1.77
2022-11-24T08:59:14.963Z,1.60
2022-11-24T09:01:42.515Z,1.70
2022-11-24T09:04:09.946Z,2.27
2022-11-24T09:06:37.529Z,1.90
2022-11-24T09:09:04.933Z,1.90
2022-11-24T09:11:34.575Z,1.67
2022-11-24T09:14:02.142Z,4.00
2022-11-24T09:16:30.077Z,1.50
2022-11-24T09:18:58.479Z,3.97
2022-11-24T09:21:25.852Z,5.47
2022-11-24T09:23:53.859Z,2.10
2022-11-24T09:26:21.142Z,1.50
2022-11-24T09:28:48.650Z,1.10
2022-11-24T09:31:17.623Z,1.20
2022-11-24T09:33:45.671Z,0.80
2022-11-24T09:36:13.299Z,0.93
2022-11-24T09:38:40.736Z,0.73
2022-11-24T09:41:14.263Z,1.00
2022-11-24T09:43:53.620Z,0.80
2022-11-24T09:46:23.988Z,0.80
2022-11-24T09:48:54.079Z,1.00
2022-11-24T09:51:25.291Z,1.00
2022-11-24T09:54:03.228Z,0.90
2022-11-24T09:56:34.495Z,1.00
2022-11-24T09:59:23.027Z,1.00
2022-11-24T10:01:51.507Z,0.97
2022-11-24T10:04:52.631Z,3.70
2022-11-24T10:07:38.562Z,4.07
2022-11-24T10:10:08.954Z,2.77
2022-11-24T10:12:48.668Z,1.00
2022-11-24T10:15:24.621Z,1.10
2022-11-24T10:17:51.863Z,0.83
2022-11-24T10:20:19.123Z,1.20
2022-11-24T10:23:06.625Z,1.20
2022-11-24T10:25:52.745Z,1.10
2022-11-24T10:28:20.089Z,1.10
2022-11-24T10:30:47.420Z,1.20
2022-11-24T10:33:23.179Z,1.07
2022-11-24T10:35:53.222Z,0.90
2022-11-24T10:38:30.002Z,1.00
2022-11-24T10:41:00.352Z,0.70
2022-11-24T10:43:28.531Z,2.10
2022-11-24T10:45:56.826Z,1.00
2022-11-24T10:48:29.478Z,0.83
2022-11-24T10:51:06.439Z,1.07
2022-11-24T10:53:34.401Z,1.30
2022-11-24T10:56:05.816Z,1.10
2022-11-24T10:58:38.565Z,1.00
2022-11-24T11:01:15.546Z,2.33
2022-11-24T11:03:48.423Z,1.13
2022-11-24T11:06:21.420Z,1.23
2022-11-24T11:08:48.874Z,5.83
2022-11-24T11:11:22.327Z,7.23
2022-11-24T11:13:52.315Z,2.57
2022-11-24T11:16:39.033Z,1.93
2022-11-24T11:19:54.190Z,2.33
2022-11-24T11:22:16.612Z,3.10
2022-11-24T11:24:44.788Z,1.77
2022-11-24T11:27:21.330Z,1.90
2022-11-24T11:35:26.498Z,1.43
2022-11-24T11:37:57.873Z,1.50
2022-11-24T11:40:27.114Z,1.70
2022-11-24T11:43:03.092Z,1.63
2022-11-24T11:45:37.801Z,2.07
2022-11-24T11:48:05.328Z,2.67
2022-11-24T11:50:33.223Z,1.40
2022-11-24T11:53:25.408Z,1.50
2022-11-24T11:56:21.971Z,1.57
2022-11-24T11:58:49.235Z,1.60
2022-11-24T12:01:35.330Z,1.73
2022-11-24T12:04:05.941Z,1.50
2022-11-24T12:06:33.268Z,2.30
2022-11-24T12:09:21.466Z,1.50
2022-11-24T12:11:48.867Z,1.80
2022-11-24T12:14:22.292Z,1.70
2022-11-24T12:16:59.167Z,1.70
2022-11-24T12:19:37.905Z,1.40
2022-11-24T12:22:12.119Z,1.40
2022-11-24T12:24:44.769Z,2.03
2022-11-24T12:27:27.462Z,2.13
2022-11-24T12:30:12.086Z,2.17
2022-11-24T12:32:47.659Z,1.50
2022-11-24T12:35:30.637Z,1.50
2022-11-24T12:38:06.469Z,1.40
2022-11-24T12:40:46.851Z,1.70
2022-11-24T12:43:20.218Z,2.27
2022-11-24T12:45:55.944Z,1.57
2022-11-24T12:48:26.451Z,1.40
2022-11-24T12:50:55.668Z,1.60
2022-11-24T12:53:29.286Z,1.67
2022-11-24T12:56:05.853Z,1.77
2022-11-24T12:58:45.666Z,7.37
2022-11-24T13:01:32.087Z,10.27
2022-11-24T13:04:02.575Z,19.23
2022-11-24T13:06:30.181Z,3.30
2022-11-24T13:08:57.613Z,2.23
2022-11-24T13:11:24.984Z,1.80
2022-11-24T13:13:59.660Z,1.70
2022-11-24T13:16:36.213Z,2.60
2022-11-24T13:19:14.544Z,2.50
2022-11-24T13:21:43.006Z,1.90
2022-11-24T13:24:20.488Z,1.43
2022-11-24T13:26:52.604Z,1.87
2022-11-24T13:29:29.251Z,1.70
2022-11-24T13:32:19.793Z,1.30
2022-11-24T13:34:55.267Z,1.50
2022-11-24T13:37:33.912Z,1.80
2022-11-24T13:40:29.891Z,1.60
2022-11-24T13:43:03.333Z,1.60
2022-11-24T13:45:36.696Z,2.13
2022-11-24T13:48:24.028Z,1.77
2022-11-24T13:50:51.671Z,1.63
2022-11-24T13:53:34.985Z,1.50
2022-11-24T13:56:05.480Z,1.83
2022-11-24T13:58:32.927Z,1.70
2022-11-24T14:01:03.557Z,1.83
2022-11-24T14:03:32.583Z,1.67
2022-11-24T14:06:00.023Z,1.50
2022-11-24T14:08:28.276Z,1.67
2022-11-24T14:10:57.365Z,2.37
2022-11-24T14:13:25.241Z,8.50
2022-11-24T14:16:11.487Z,10.43
2022-11-24T14:18:39.797Z,6.43
2022-11-24T14:21:22.968Z,4.50
2022-11-24T14:23:55.109Z,58.30
2022-11-24T14:26:42.100Z,36.37
2022-11-24T14:29:17.267Z,13.07
2022-11-24T14:31:52.603Z,3.33
2022-11-24T14:34:23.132Z,15.50
2022-11-24T14:36:51.105Z,29.73
2022-11-24T14:39:19.903Z,9.40
2022-11-24T14:42:06.390Z,15.87
2022-11-24T14:44:52.973Z,45.03
2022-11-24T14:47:20.276Z,9.53
2022-11-24T14:49:47.780Z,3.13
2022-11-24T14:52:16.367Z,2.37
2022-11-24T14:54:48.611Z,2.43
2022-11-24T14:57:28.417Z,1.77
2022-11-24T15:00:07.536Z,1.67
2022-11-24T15:02:44.178Z,1.73
2022-11-24T15:05:11.778Z,1.77
2022-11-24T15:07:40.420Z,2.27
2022-11-24T15:10:19.285Z,2.10
2022-11-24T15:12:54.903Z,1.63
2022-11-24T15:15:24.656Z,1.80
2022-11-24T15:17:57.303Z,1.63
2022-11-24T15:20:27.153Z,1.63
2022-11-24T15:23:14.627Z,1.67
2022-11-24T15:25:41.880Z,1.70
2022-11-24T15:28:10.010Z,2.10
2022-11-24T15:30:37.668Z,2.00
2022-11-24T15:33:12.345Z,1.83
2022-11-24T15:35:39.585Z,2.83
2022-11-24T15:38:07.194Z,4.57
2022-11-24T15:40:34.537Z,13.97
2022-11-24T15:43:06.499Z,13.53
2022-11-24T15:45:34.869Z,14.87
2022-11-24T15:48:02.137Z,11.43
2022-11-24T15:50:29.660Z,10.37
2022-11-24T15:52:57.825Z,9.00
2022-11-24T15:55:26.384Z,10.67
2022-11-24T15:57:53.778Z,12.53
2022-11-24T16:00:22.267Z,6.13
2022-11-24T16:02:49.560Z,4.77
2022-11-24T16:05:17.468Z,3.37
2022-11-24T16:07:45.014Z,2.40
2022-11-24T16:10:26.837Z,2.43
2022-11-24T16:12:54.147Z,2.10
2022-11-24T16:15:21.397Z,2.20
2022-11-24T16:17:49.471Z,2.10
2022-11-24T16:20:16.955Z,1.80
2022-11-24T16:22:44.754Z,3.77
2022-11-24T16:25:12.768Z,8.07
2022-11-24T16:27:40.123Z,16.47
2022-11-24T16:30:08.371Z,18.70
2022-11-24T16:32:35.862Z,16.17
2022-11-24T16:35:03.147Z,11.50
2022-11-24T16:37:30.547Z,16.57
2022-11-24T16:39:58.576Z,18.80
2022-11-24T16:42:25.998Z,17.60
2022-11-24T16:44:53.449Z,12.60
2022-11-24T16:47:20.803Z,9.67
2022-11-24T16:49:48.078Z,8.93
2022-11-24T16:52:15.722Z,8.33
2022-11-24T16:54:43.468Z,10.27
2022-11-24T16:57:14.963Z,10.60
2022-11-24T16:59:46.296Z,8.83
2022-11-24T17:02:14.129Z,10.10
2022-11-24T17:04:41.504Z,8.30
2022-11-24T17:07:08.952Z,9.10
2022-11-24T17:09:40.599Z,8.53
2022-11-24T17:12:09.227Z,6.80
2022-11-24T17:14:37.182Z,4.23
2022-11-24T17:17:04.932Z,8.53
2022-11-24T17:19:32.320Z,11.63
2022-11-24T17:21:59.745Z,12.43
2022-11-24T17:24:27.272Z,10.27
2022-11-24T17:26:54.757Z,7.93
2022-11-24T17:29:22.167Z,9.47
2022-11-24T17:31:49.564Z,8.47
2022-11-24T17:34:17.107Z,5.23
2022-11-24T17:36:46.058Z,3.90
2022-11-24T17:39:13.670Z,4.67
2022-11-24T17:41:41.477Z,4.27
2022-11-24T17:44:10.688Z,5.10
2022-11-24T17:46:38.917Z,4.47
2022-11-24T17:49:08.404Z,4.70
2022-11-24T17:51:35.649Z,5.10
2022-11-24T17:54:31.172Z,5.87
2022-11-24T17:56:51.579Z,5.67
2022-11-24T17:59:18.967Z,5.53
2022-11-24T18:01:46.244Z,5.07
2022-11-24T18:04:13.608Z,6.80
2022-11-24T18:06:40.995Z,5.90
2022-11-24T18:09:09.144Z,6.60
2022-11-24T18:11:36.514Z,4.80
2022-11-24T18:14:04.319Z,3.87
2022-11-24T18:16:32.990Z,3.83
2022-11-24T18:19:08.768Z,4.47
2022-11-24T18:21:40.797Z,3.63
2022-11-24T18:24:09.057Z,2.70
2022-11-24T18:26:36.495Z,3.00
2022-11-24T18:29:04.096Z,2.57
2022-11-24T18:31:32.439Z,3.00
2022-11-24T18:34:00.104Z,5.40
2022-11-24T18:36:30.599Z,8.20
2022-11-24T18:39:01.721Z,8.13
2022-11-24T18:41:28.931Z,8.70
2022-11-24T18:43:56.218Z,8.83
2022-11-24T18:46:23.649Z,10.20
2022-11-24T18:48:53.170Z,9.27
2022-11-24T18:51:22.747Z,7.40
2022-11-24T18:53:53.467Z,7.37
2022-11-24T18:56:21.052Z,8.00
2022-11-24T18:58:48.319Z,6.67
2022-11-24T19:01:17.884Z,5.87
2022-11-24T19:03:49.867Z,4.30
2022-11-24T19:06:17.161Z,8.73
2022-11-24T19:08:45.140Z,9.90
2022-11-24T19:11:23.167Z,12.40
2022-11-24T19:13:50.614Z,12.40
2022-11-24T19:16:18.882Z,9.87
2022-11-24T19:18:51.958Z,6.77
2022-11-24T19:21:24.429Z,6.17
2022-11-24T19:23:51.725Z,6.73
2022-11-24T19:26:19.291Z,8.63
2022-11-24T19:28:46.742Z,8.20
2022-11-24T19:31:15.067Z,6.37
2022-11-24T19:33:42.387Z,4.53
2022-11-24T19:36:15.479Z,4.90
2022-11-24T19:38:43.326Z,3.60
2022-11-24T19:41:12.222Z,3.43
2022-11-24T19:43:40.065Z,3.30
2022-11-24T19:46:11.894Z,2.57
2022-11-24T19:48:40.898Z,2.50
2022-11-24T19:51:09.775Z,2.40
2022-11-24T19:53:37.960Z,3.70
2022-11-24T19:56:10.018Z,5.53
2022-11-24T19:58:37.621Z,8.20
2022-11-24T20:01:16.216Z,6.70
2022-11-24T20:03:43.969Z,6.47
2022-11-24T20:06:12.652Z,5.20
2022-11-24T20:08:40.880Z,6.97
2022-11-24T20:11:11.363Z,9.40
2022-11-24T20:13:40.751Z,8.50
2022-11-24T20:16:10.225Z,5.47
2022-11-24T20:18:41.953Z,5.90
2022-11-24T20:21:10.669Z,9.87
2022-11-24T20:23:37.950Z,8.50
2022-11-24T20:26:09.634Z,11.10
2022-11-24T20:28:37.265Z,12.33
2022-11-24T20:31:05.538Z,12.37
2022-11-24T20:33:34.626Z,11.77
2022-11-24T20:36:07.304Z,12.27
2022-11-24T20:38:35.270Z,11.50
2022-11-24T20:41:08.732Z,15.50
2022-11-24T20:43:37.531Z,20.67
2022-11-24T20:46:06.627Z,21.23
2022-11-24T20:48:34.913Z,19.13
2022-11-24T20:51:12.689Z,16.37
2022-11-24T20:53:40.210Z,15.07
2022-11-24T20:56:09.023Z,13.17
2022-11-24T20:58:36.914Z,10.00
2022-11-24T21:01:08.042Z,10.40
2022-11-24T21:03:39.825Z,7.87
2022-11-24T21:06:10.492Z,5.87
2022-11-24T21:08:38.338Z,5.27
2022-11-24T21:11:06.766Z,6.33
2022-11-24T21:13:34.751Z,5.97
2022-11-24T21:16:12.182Z,6.27
2022-11-24T21:18:39.451Z,10.67
2022-11-24T21:21:06.948Z,9.37
2022-11-24T21:23:34.261Z,10.90
2022-11-24T21:26:07.437Z,11.77
2022-11-24T21:28:38.283Z,13.20
2022-11-24T21:31:13.341Z,13.43
2022-11-24T21:33:45.420Z,11.37
2022-11-24T21:36:14.716Z,9.33
2022-11-24T21:38:45.625Z,8.90
2022-11-24T21:41:14.061Z,7.83
2022-11-24T21:43:42.216Z,7.23
2022-11-24T21:46:11.986Z,8.17
2022-11-24T21:48:39.900Z,7.17
2022-11-24T21:51:08.816Z,4.90
2022-11-24T21:53:37.031Z,4.43
2022-11-24T21:56:05.796Z,4.20
2022-11-24T21:58:33.626Z,8.60
2022-11-24T22:01:05.235Z,9.53
2022-11-24T22:03:33.474Z,7.47
2022-11-24T22:06:01.189Z,8.23
2022-11-24T22:08:29.158Z,7.47
2022-11-24T22:11:11.203Z,6.90
2022-11-24T22:13:38.814Z,8.60
2022-11-24T22:16:07.548Z,8.27
2022-11-24T22:18:35.802Z,8.13
2022-11-24T22:21:03.428Z,7.70
2022-11-24T22:23:31.615Z,7.43
2022-11-24T22:26:06.467Z,7.70
2022-11-24T22:28:35.220Z,5.53
2022-11-24T22:31:06.646Z,6.50
2022-11-24T22:33:34.295Z,8.97
2022-11-24T22:36:02.240Z,14.13
2022-11-24T22:38:30.429Z,15.43
2022-11-24T22:41:24.091Z,11.37
2022-11-24T22:43:51.544Z,4.60
2022-11-24T22:46:20.258Z,5.57
2022-11-24T22:48:48.588Z,7.63
2022-11-24T22:51:20.307Z,4.60
2022-11-24T22:53:48.686Z,4.57
2022-11-24T22:56:16.450Z,4.70
2022-11-24T22:58:44.036Z,8.40
2022-11-24T23:01:12.464Z,9.50
2022-11-24T23:03:40.035Z,8.43
2022-11-24T23:06:08.585Z,12.20
2022-11-24T23:08:36.560Z,18.27
2022-11-24T23:11:05.355Z,20.27
2022-11-24T23:13:32.797Z,17.43
2022-11-24T23:16:01.005Z,15.50
2022-11-24T23:18:28.275Z,13.67
2022-11-24T23:20:55.739Z,13.77
2022-11-24T23:23:22.954Z,12.70
2022-11-24T23:25:50.775Z,14.60
2022-11-24T23:28:18.795Z,14.40
2022-11-24T23:30:46.257Z,16.83
2022-11-24T23:33:13.511Z,24.93
2022-11-24T23:35:40.765Z,35.80
2022-11-24T23:38:08.234Z,37.53
2022-11-24T23:40:35.766Z,29.83
2022-11-24T23:43:03.044Z,26.97
2022-11-24T23:45:30.417Z,22.57
2022-11-24T23:47:57.707Z,9.23
2022-11-24T23:50:24.961Z,8.33
2022-11-24T23:52:52.253Z,6.60
2022-11-24T23:55:19.580Z,6.00
2022-11-24T23:57:46.969Z,5.50
